Time;durP1;ratioP1;P1;durP2;ratioP2;P2;SDS_P1;SDS_P2;PMS_P1;PMS_P2;Temp;Humidity;BMP_temperature;BMP_pressure;BME280_temperature;BME280_humidity;BME280_pressure;Samples;Min_cycle;Max_cycle;Signal;HPM_P1;HPM_P2
2022/06/08 00:01:37;;;;;;;5.60;3.77;;;18.20;99.90;;;;;;5014266;28;20755;-75
2022/06/08 00:04:05;;;;;;;4.33;3.50;;;18.20;99.90;;;;;;5017351;28;20266;-78
2022/06/08 00:06:30;;;;;;;7.40;4.03;;;18.20;99.90;;;;;;5016814;28;20266;-78
2022/06/08 00:08:56;;;;;;;9.50;4.53;;;18.20;99.90;;;;;;5017947;28;20719;-78
2022/06/08 00:11:21;;;;;;;4.07;3.30;;;18.20;99.90;;;;;;5020414;28;20645;-78
2022/06/08 00:13:47;;;;;;;5.40;3.17;;;18.20;99.90;;;;;;5028313;28;20400;-78
2022/06/08 00:16:13;;;;;;;5.13;3.73;;;18.20;99.90;;;;;;5024954;28;20213;-66
2022/06/08 00:18:40;;;;;;;4.00;2.90;;;18.20;99.90;;;;;;5016589;28;20208;-78
2022/06/08 00:21:06;;;;;;;5.60;3.00;;;18.20;99.90;;;;;;5035723;28;20633;-78
2022/06/08 00:23:32;;;;;;;5.47;3.87;;;18.20;99.90;;;;;;5021911;28;21204;-77
2022/06/08 00:25:58;;;;;;;4.20;3.53;;;18.20;99.90;;;;;;5021365;28;20223;-76
2022/06/08 00:28:23;;;;;;;20.70;6.33;;;18.20;99.90;;;;;;5048092;28;20269;-81
2022/06/08 00:30:49;;;;;;;5.47;4.53;;;18.10;99.90;;;;;;5036611;28;20501;-63
2022/06/08 00:33:14;;;;;;;5.40;4.90;;;18.10;99.90;;;;;;5016229;28;20314;-78
2022/06/08 00:35:40;;;;;;;5.50;5.00;;;17.80;99.90;;;;;;5021806;28;20557;-70
2022/06/08 00:38:06;;;;;;;7.83;5.67;;;17.50;99.90;;;;;;5026622;28;20605;-75
2022/06/08 00:41:13;;;;;;;8.93;6.07;;;17.20;99.90;;;;;;5035786;28;20281;-75
2022/06/08 00:43:39;;;;;;;5.67;4.97;;;17.00;99.90;;;;;;5038162;28;20339;-75
2022/06/08 00:46:06;;;;;;;4.97;4.57;;;16.80;99.90;;;;;;5024138;28;20314;-76
2022/06/08 00:48:36;;;;;;;6.63;6.00;;;16.70;99.90;;;;;;5022564;28;20217;-75
2022/06/08 00:51:01;;;;;;;5.83;5.20;;;16.60;99.90;;;;;;5030427;28;20209;-76
2022/06/08 00:53:31;;;;;;;5.87;5.27;;;16.50;99.90;;;;;;5024787;28;20552;-75
2022/06/08 00:56:00;;;;;;;7.17;5.00;;;16.50;99.90;;;;;;5023196;28;20809;-74
2022/06/08 00:58:29;;;;;;;5.87;4.23;;;16.50;99.90;;;;;;5023033;28;20676;-75
2022/06/08 01:00:58;;;;;;;4.67;4.27;;;16.50;99.90;;;;;;5024087;28;20214;-73
2022/06/08 01:03:24;;;;;;;5.23;3.93;;;16.40;99.90;;;;;;5023699;28;20202;-73
2022/06/08 01:06:00;;;;;;;6.00;3.57;;;16.40;99.90;;;;;;5020971;28;20277;-75
2022/06/08 01:08:36;;;;;;;3.20;2.90;;;16.50;99.90;;;;;;5023119;28;21443;-77
2022/06/08 01:11:25;;;;;;;4.00;3.60;;;16.50;99.90;;;;;;5019259;28;20208;-72
2022/06/08 01:13:52;;;;;;;5.67;4.03;;;16.60;99.90;;;;;;5020858;28;20202;-75
2022/06/08 01:16:18;;;;;;;4.17;3.60;;;16.70;99.90;;;;;;5021741;28;20236;-75
2022/06/08 01:18:43;;;;;;;5.03;3.97;;;16.80;99.90;;;;;;5024235;28;20214;-74
2022/06/08 01:21:21;;;;;;;6.27;3.80;;;16.80;99.90;;;;;;5022655;28;20328;-75
2022/06/08 01:24:10;;;;;;;7.13;4.07;;;16.80;99.90;;;;;;5018331;28;20212;-74
2022/06/08 01:27:01;;;;;;;3.80;3.50;;;16.80;99.90;;;;;;5011463;28;20314;-73
2022/06/08 01:29:29;;;;;;;4.50;3.33;;;16.80;99.90;;;;;;5012747;28;20198;-75
2022/06/08 01:32:03;;;;;;;3.13;2.83;;;16.90;99.90;;;;;;5022479;28;20235;-74
2022/06/08 01:34:53;;;;;;;5.97;3.47;;;16.80;99.90;;;;;;5021162;28;20191;-70
2022/06/08 01:37:27;;;;;;;4.87;3.30;;;16.80;99.90;;;;;;5018332;28;20193;-76
2022/06/08 01:40:27;;;;;;;4.53;3.40;;;16.80;99.90;;;;;;5012337;28;20197;-73
2022/06/08 01:43:11;;;;;;;5.10;3.50;;;16.70;99.90;;;;;;5030320;28;20283;-76
2022/06/08 01:45:52;;;;;;;4.73;3.10;;;16.70;99.90;;;;;;5016084;28;20219;-70
2022/06/08 01:48:28;;;;;;;5.47;3.63;;;16.70;99.90;;;;;;5017002;28;20268;-71
2022/06/08 01:51:11;;;;;;;6.33;3.93;;;16.60;99.90;;;;;;5020955;28;20183;-67
2022/06/08 01:54:02;;;;;;;4.73;3.50;;;16.50;99.90;;;;;;5021986;28;20201;-61
2022/06/08 01:56:47;;;;;;;5.07;4.13;;;16.50;99.90;;;;;;5012480;28;20548;-69
2022/06/08 01:59:27;;;;;;;4.60;4.20;;;16.50;99.90;;;;;;5014683;28;20258;-71
2022/06/08 02:02:08;;;;;;;4.03;3.73;;;16.50;99.90;;;;;;5019639;28;20334;-68
2022/06/08 02:04:46;;;;;;;4.23;3.77;;;16.50;99.90;;;;;;5015816;28;20217;-69
2022/06/08 02:07:33;;;;;;;3.80;3.40;;;16.50;99.90;;;;;;5017517;28;20303;-72
2022/06/08 02:10:20;;;;;;;3.90;3.03;;;16.50;99.90;;;;;;5023701;28;20242;-72
2022/06/08 02:12:51;;;;;;;4.20;3.13;;;16.50;99.90;;;;;;5013979;28;20619;-68
2022/06/08 02:15:25;;;;;;;6.33;4.00;;;16.50;99.90;;;;;;5016598;28;20720;-65
2022/06/08 02:17:53;;;;;;;5.23;4.47;;;16.40;99.90;;;;;;5009074;28;20235;-70
2022/06/08 02:20:51;;;;;;;4.83;4.33;;;16.50;99.90;;;;;;5021160;28;20205;-75
2022/06/08 02:23:52;;;;;;;6.30;3.40;;;16.50;99.90;;;;;;5004007;28;20260;-69
2022/06/08 02:26:26;;;;;;;5.47;3.30;;;16.60;99.90;;;;;;5021971;28;20445;-70
2022/06/08 02:29:10;;;;;;;6.90;4.20;;;16.60;99.90;;;;;;5005615;28;20199;-70
2022/06/08 02:31:48;;;;;;;10.23;3.63;;;16.50;99.90;;;;;;5015668;28;20181;-65
2022/06/08 02:34:35;;;;;;;3.80;3.50;;;16.60;99.90;;;;;;5013404;28;20185;-70
2022/06/08 02:37:10;;;;;;;6.00;3.90;;;16.50;99.90;;;;;;5007758;28;20232;-66
2022/06/08 02:39:44;;;;;;;3.33;2.93;;;16.50;99.90;;;;;;5022744;28;20218;-65
2022/06/08 02:42:19;;;;;;;3.57;3.27;;;16.60;99.90;;;;;;5015266;28;20707;-67
2022/06/08 02:44:47;;;;;;;5.00;4.20;;;16.60;99.90;;;;;;5010850;28;20239;-69
2022/06/08 02:47:30;;;;;;;4.30;3.87;;;16.60;99.90;;;;;;5027698;28;20218;-69
2022/06/08 02:50:04;;;;;;;5.70;3.37;;;16.70;99.90;;;;;;5023391;28;20669;-75
2022/06/08 02:52:30;;;;;;;3.90;3.17;;;16.70;99.90;;;;;;5015216;28;20206;-76
2022/06/08 02:54:56;;;;;;;3.23;2.93;;;16.80;99.90;;;;;;5036623;28;20221;-75
2022/06/08 02:57:24;;;;;;;5.10;3.70;;;16.90;99.90;;;;;;5030485;28;20200;-75
2022/06/08 03:00:03;;;;;;;9.00;3.63;;;16.90;99.90;;;;;;5034716;28;20201;-72
2022/06/08 03:02:34;;;;;;;3.33;3.03;;;16.90;99.90;;;;;;5016104;28;20245;-63
2022/06/08 03:05:26;;;;;;;5.53;2.90;;;17.00;99.90;;;;;;5019858;28;20195;-62
2022/06/08 03:08:25;;;;;;;3.40;3.10;;;17.00;99.90;;;;;;5017226;28;20201;-62
2022/06/08 03:10:53;;;;;;;2.97;2.73;;;17.00;99.90;;;;;;4999630;28;20207;-64
2022/06/08 03:13:26;;;;;;;6.33;3.43;;;17.00;99.90;;;;;;5017895;28;20207;-63
2022/06/08 03:16:00;;;;;;;2.90;2.70;;;16.90;99.90;;;;;;5006807;28;20192;-63
2022/06/08 03:18:26;;;;;;;3.20;3.00;;;17.00;99.90;;;;;;5018113;28;20676;-63
2022/06/08 03:20:52;;;;;;;4.90;3.33;;;16.90;99.90;;;;;;5028656;28;20286;-65
2022/06/08 03:23:18;;;;;;;5.87;4.07;;;16.90;99.90;;;;;;5021556;28;20253;-64
2022/06/08 03:25:45;;;;;;;4.73;2.97;;;17.00;99.90;;;;;;5038142;28;20274;-65
2022/06/08 03:28:14;;;;;;;3.73;3.43;;;17.00;99.90;;;;;;5020553;28;20399;-65
2022/06/08 03:30:41;;;;;;;4.77;2.70;;;17.10;99.90;;;;;;5023954;28;20657;-65
2022/06/08 03:33:07;;;;;;;2.90;2.70;;;17.10;99.90;;;;;;5021068;28;20330;-63
2022/06/08 03:35:32;;;;;;;3.27;2.67;;;17.20;99.90;;;;;;5025194;28;20250;-63
2022/06/08 03:37:59;;;;;;;3.53;3.10;;;17.30;99.90;;;;;;5023076;28;20232;-65
2022/06/08 03:40:25;;;;;;;4.73;2.77;;;17.30;99.90;;;;;;5040614;28;20393;-64
2022/06/08 03:42:50;;;;;;;4.40;3.20;;;17.40;99.90;;;;;;5025203;28;20406;-63
2022/06/08 03:45:16;;;;;;;3.13;2.83;;;17.40;99.90;;;;;;5028095;28;20617;-63
2022/06/08 03:47:49;;;;;;;3.30;3.00;;;17.50;99.90;;;;;;5016516;28;20208;-63
2022/06/08 03:50:19;;;;;;;2.93;2.73;;;17.50;99.90;;;;;;5031995;28;20199;-64
2022/06/08 03:52:48;;;;;;;3.37;2.50;;;17.60;99.90;;;;;;5027746;28;20785;-64
2022/06/08 03:55:19;;;;;;;3.20;2.90;;;17.60;99.90;;;;;;5022609;28;20470;-63
2022/06/08 03:57:45;;;;;;;3.50;3.17;;;17.60;99.90;;;;;;5004351;28;20917;-64
2022/06/08 04:00:12;;;;;;;3.00;2.47;;;17.70;99.90;;;;;;5025099;28;20340;-65
2022/06/08 04:02:39;;;;;;;2.70;2.50;;;17.80;99.90;;;;;;5032579;28;20612;-64
2022/06/08 04:05:05;;;;;;;4.37;3.20;;;17.80;99.90;;;;;;5015194;28;20196;-64
2022/06/08 04:07:30;;;;;;;3.27;2.83;;;17.90;99.90;;;;;;5029017;28;20241;-64
2022/06/08 04:09:56;;;;;;;3.10;2.90;;;18.00;99.90;;;;;;5013609;28;20224;-64
2022/06/08 04:12:22;;;;;;;2.93;2.77;;;18.00;99.90;;;;;;5029544;28;20194;-64
2022/06/08 04:14:49;;;;;;;5.00;2.60;;;18.00;99.90;;;;;;5014757;28;20208;-63
2022/06/08 04:17:15;;;;;;;4.37;2.50;;;18.00;99.90;;;;;;5024343;28;20678;-63
2022/06/08 04:19:40;;;;;;;2.83;2.63;;;18.00;99.90;;;;;;5026249;28;20207;-64
2022/06/08 04:22:06;;;;;;;4.73;4.03;;;18.00;99.90;;;;;;5036150;28;20221;-64
2022/06/08 04:24:32;;;;;;;4.83;3.30;;;18.00;99.90;;;;;;5015979;28;20242;-63
2022/06/08 04:26:57;;;;;;;2.73;2.50;;;18.00;99.90;;;;;;5021309;28;20221;-64
2022/06/08 04:29:23;;;;;;;2.30;2.20;;;18.00;99.90;;;;;;5013327;28;20210;-64
2022/06/08 04:31:49;;;;;;;2.80;2.60;;;18.00;99.90;;;;;;5025695;28;20646;-64
2022/06/08 04:34:15;;;;;;;6.53;2.60;;;18.00;99.90;;;;;;5016632;28;20280;-64
2022/06/08 04:36:42;;;;;;;3.03;2.73;;;17.90;99.90;;;;;;5029708;28;20203;-64
2022/06/08 04:39:11;;;;;;;4.83;2.50;;;17.90;99.90;;;;;;5004380;28;20757;-64
2022/06/08 04:41:37;;;;;;;2.80;2.13;;;18.00;99.90;;;;;;5034494;28;20203;-64
2022/06/08 04:44:04;;;;;;;2.60;2.40;;;18.00;99.90;;;;;;5011118;28;20211;-64
2022/06/08 04:46:30;;;;;;;1.90;1.80;;;18.10;99.90;;;;;;5032649;28;20211;-65
2022/06/08 04:48:56;;;;;;;3.57;3.10;;;18.20;99.90;;;;;;5015770;28;20223;-65
2022/06/08 04:51:22;;;;;;;4.77;2.67;;;18.30;99.90;;;;;;5032096;28;20191;-72
2022/06/08 04:53:48;;;;;;;2.70;2.50;;;18.40;99.90;;;;;;5014360;28;20540;-73
2022/06/08 04:56:14;;;;;;;7.30;2.70;;;18.50;99.90;;;;;;5039569;28;20313;-74
2022/06/08 04:58:40;;;;;;;2.80;2.60;;;18.60;99.90;;;;;;5015381;28;20231;-73
2022/06/08 05:01:05;;;;;;;7.00;2.37;;;18.70;99.90;;;;;;5026056;28;20709;-73
2022/06/08 05:03:31;;;;;;;2.77;2.47;;;18.80;99.90;;;;;;5022348;28;20282;-73
2022/06/08 05:05:59;;;;;;;3.33;2.50;;;18.90;99.90;;;;;;5039229;28;20246;-73
2022/06/08 05:08:25;;;;;;;4.17;2.50;;;18.90;99.90;;;;;;5020501;28;20200;-73
2022/06/08 05:10:52;;;;;;;5.07;2.40;;;18.90;99.90;;;;;;5035542;28;20195;-74
2022/06/08 05:13:20;;;;;;;3.90;3.07;;;18.90;99.90;;;;;;5021833;28;20203;-72
2022/06/08 05:15:46;;;;;;;3.63;2.30;;;18.80;99.90;;;;;;5035854;28;20205;-76
2022/06/08 05:18:15;;;;;;;3.03;2.83;;;18.70;99.90;;;;;;5024495;28;20677;-75
2022/06/08 05:20:42;;;;;;;5.67;2.77;;;18.60;99.90;;;;;;5040024;28;20233;-76
2022/06/08 05:23:11;;;;;;;2.00;1.90;;;18.50;99.90;;;;;;5022354;28;20286;-72
2022/06/08 05:25:40;;;;;;;2.60;2.50;;;18.50;99.90;;;;;;5031231;28;20215;-73
2022/06/08 05:28:07;;;;;;;2.70;2.50;;;18.40;99.90;;;;;;5026333;28;20650;-76
2022/06/08 05:30:33;;;;;;;2.93;2.43;;;18.50;99.90;;;;;;5038228;28;20191;-73
2022/06/08 05:33:00;;;;;;;4.23;2.70;;;18.50;99.90;;;;;;5017251;28;20299;-74
2022/06/08 05:35:27;;;;;;;3.03;2.73;;;18.50;99.90;;;;;;5047575;28;20285;-73
2022/06/08 05:37:52;;;;;;;4.40;2.77;;;18.60;99.90;;;;;;5015875;28;20282;-73
2022/06/08 05:40:19;;;;;;;3.43;3.00;;;18.70;99.90;;;;;;5030520;28;20201;-72
2022/06/08 05:42:44;;;;;;;3.03;2.73;;;18.80;99.90;;;;;;5028704;28;20192;-72
2022/06/08 05:45:17;;;;;;;4.20;3.13;;;18.90;99.90;;;;;;5031974;28;20258;-73
2022/06/08 05:47:44;;;;;;;5.67;3.60;;;19.00;99.90;;;;;;5006666;28;20678;-73
2022/06/08 05:50:10;;;;;;;3.97;2.83;;;19.10;99.90;;;;;;5028049;28;20195;-74
2022/06/08 05:52:36;;;;;;;4.10;2.70;;;19.20;99.90;;;;;;5019802;28;20210;-74
2022/06/08 05:55:01;;;;;;;3.13;2.70;;;19.30;99.90;;;;;;5033180;28;20234;-73
2022/06/08 05:57:27;;;;;;;5.73;3.50;;;19.50;99.90;;;;;;5009445;28;20222;-73
2022/06/08 05:59:53;;;;;;;3.00;2.70;;;19.60;99.90;;;;;;5020690;28;20214;-73
2022/06/08 06:02:18;;;;;;;2.87;2.60;;;19.50;99.90;;;;;;5026719;28;20192;-73
2022/06/08 06:04:44;;;;;;;4.73;3.23;;;19.50;99.90;;;;;;5023640;28;20604;-73
2022/06/08 06:07:11;;;;;;;2.77;2.57;;;19.40;99.90;;;;;;5038054;28;20214;-73
2022/06/08 06:09:38;;;;;;;3.90;3.50;;;19.30;99.90;;;;;;5012791;28;20188;-73
2022/06/08 06:12:04;;;;;;;3.83;2.83;;;19.30;99.90;;;;;;5039809;28;20286;-73
2022/06/08 06:14:29;;;;;;;3.10;2.80;;;19.20;99.90;;;;;;5018522;28;20619;-72
2022/06/08 06:16:55;;;;;;;4.23;3.03;;;19.10;99.90;;;;;;5036607;28;20238;-72
2022/06/08 06:19:20;;;;;;;3.20;2.77;;;19.20;99.90;;;;;;5007857;28;20177;-76
2022/06/08 06:21:46;;;;;;;3.07;2.77;;;19.20;99.90;;;;;;5041600;28;20203;-74
2022/06/08 06:24:12;;;;;;;3.17;2.80;;;19.30;99.90;;;;;;5021078;28;20195;-76
2022/06/08 06:26:37;;;;;;;3.17;2.70;;;19.40;99.90;;;;;;5028888;28;20750;-76
2022/06/08 06:29:02;;;;;;;5.20;3.37;;;19.50;99.90;;;;;;5015488;28;20666;-76
2022/06/08 06:31:42;;;;;;;4.47;3.67;;;19.60;99.90;;;;;;5032577;28;20215;-76
2022/06/08 06:34:11;;;;;;;5.10;4.00;;;19.60;99.90;;;;;;5016183;28;20318;-76
2022/06/08 06:36:37;;;;;;;3.10;2.90;;;19.70;99.90;;;;;;5028137;28;20241;-75
2022/06/08 06:39:02;;;;;;;4.33;3.23;;;19.80;99.90;;;;;;5009864;28;20195;-76
2022/06/08 06:41:29;;;;;;;4.07;3.53;;;19.80;99.90;;;;;;5032828;28;20798;-76
2022/06/08 06:43:55;;;;;;;3.30;3.10;;;19.80;99.90;;;;;;5014646;28;20751;-77
2022/06/08 06:46:20;;;;;;;2.80;2.60;;;19.80;99.90;;;;;;5020192;28;20226;-77
2022/06/08 06:48:48;;;;;;;5.47;3.70;;;19.90;99.90;;;;;;5017978;28;20982;-76
2022/06/08 06:51:14;;;;;;;3.30;2.83;;;20.00;99.90;;;;;;5031231;28;20246;-73
2022/06/08 06:53:39;;;;;;;2.53;2.33;;;20.40;99.90;;;;;;5016458;28;20276;-73
2022/06/08 06:56:06;;;;;;;3.87;2.40;;;20.50;99.90;;;;;;5026432;28;20226;-74
2022/06/08 06:58:32;;;;;;;3.20;3.00;;;20.60;99.90;;;;;;5025762;28;20671;-73
2022/06/08 07:00:57;;;;;;;2.87;2.77;;;20.80;99.90;;;;;;5035920;28;20196;-73
2022/06/08 07:03:23;;;;;;;2.63;2.43;;;21.00;99.90;;;;;;5017493;28;20204;-76
2022/06/08 07:05:49;;;;;;;3.95;2.55;;;21.20;99.40;;;;;;5045471;28;20207;-76
2022/06/08 07:08:14;;;;;;;3.90;2.50;;;21.30;98.90;;;;;;5013349;28;20204;-77
2022/06/08 07:10:40;;;;;;;5.10;2.60;;;21.40;98.70;;;;;;5026011;28;20529;-77
2022/06/08 07:13:05;;;;;;;3.93;2.60;;;21.50;98.10;;;;;;5023614;28;20239;-77
2022/06/08 07:15:31;;;;;;;2.63;2.37;;;21.60;98.10;;;;;;5037446;28;20187;-76
2022/06/08 07:17:56;;;;;;;3.08;2.25;;;21.70;97.90;;;;;;5015714;28;20946;-77
2022/06/08 07:20:23;;;;;;;2.42;2.15;;;21.70;98.00;;;;;;5037459;28;20196;-76
2022/06/08 07:22:50;;;;;;;2.38;2.10;;;21.60;98.00;;;;;;5031666;28;20225;-76
2022/06/08 07:25:16;;;;;;;3.58;2.63;;;21.60;98.30;;;;;;5026570;28;20200;-76
2022/06/08 07:27:42;;;;;;;3.47;2.03;;;21.70;98.00;;;;;;5035228;28;20610;-76
2022/06/08 07:30:08;;;;;;;2.03;1.92;;;21.70;98.00;;;;;;5023982;28;20192;-76
2022/06/08 07:32:35;;;;;;;2.10;1.80;;;21.70;98.10;;;;;;5033149;28;20674;-76
2022/06/08 07:35:02;;;;;;;2.20;2.10;;;21.70;98.00;;;;;;5016943;28;20188;-76
2022/06/08 07:37:28;;;;;;;2.63;2.07;;;21.50;98.20;;;;;;5031721;28;20666;-75
2022/06/08 07:39:54;;;;;;;2.17;1.85;;;21.50;98.30;;;;;;5022571;28;20188;-76
2022/06/08 07:42:20;;;;;;;1.75;1.65;;;21.50;98.50;;;;;;5033492;28;20209;-76
2022/06/08 07:44:45;;;;;;;2.70;1.88;;;21.50;98.30;;;;;;5009576;28;20204;-76
2022/06/08 07:47:11;;;;;;;2.67;1.80;;;21.60;98.40;;;;;;5036623;28;20215;-75
2022/06/08 07:49:37;;;;;;;1.88;1.77;;;21.80;98.10;;;;;;5015970;28;20188;-76
2022/06/08 07:52:05;;;;;;;2.03;1.67;;;22.00;98.00;;;;;;5026447;28;20210;-75
2022/06/08 07:54:31;;;;;;;1.90;1.80;;;22.30;96.90;;;;;;5022482;28;20288;-75
2022/06/08 07:56:58;;;;;;;2.25;1.60;;;22.30;96.70;;;;;;5026301;28;20600;-76
2022/06/08 07:59:27;;;;;;;1.63;1.58;;;22.50;96.20;;;;;;5016900;28;20183;-76
2022/06/08 08:01:52;;;;;;;1.83;1.73;;;22.60;96.20;;;;;;5009167;28;20202;-76
2022/06/08 08:04:18;;;;;;;1.40;1.30;;;22.50;96.20;;;;;;5011341;28;20516;-72
2022/06/08 08:06:44;;;;;;;3.67;1.70;;;22.40;96.10;;;;;;5025521;28;20242;-76
2022/06/08 08:09:17;;;;;;;2.42;1.58;;;22.30;96.00;;;;;;5015261;28;20210;-75
2022/06/08 08:11:45;;;;;;;1.98;1.88;;;22.20;96.60;;;;;;5026898;28;20183;-75
2022/06/08 08:14:12;;;;;;;2.13;1.80;;;22.10;96.80;;;;;;5023559;28;20192;-75
2022/06/08 08:16:38;;;;;;;3.00;1.88;;;22.10;97.00;;;;;;5026227;28;20594;-73
2022/06/08 08:19:04;;;;;;;1.20;1.20;;;22.10;96.80;;;;;;5008048;28;20224;-77
2022/06/08 08:21:32;;;;;;;2.15;1.98;;;22.10;96.70;;;;;;5039470;28;20661;-78
2022/06/08 08:24:01;;;;;;;2.10;1.90;;;22.00;97.10;;;;;;5016152;28;20701;-71
2022/06/08 08:26:27;;;;;;;1.65;1.55;;;21.90;97.00;;;;;;5031026;28;20207;-74
2022/06/08 08:28:54;;;;;;;1.23;1.23;;;21.90;97.00;;;;;;5020457;28;20209;-71
2022/06/08 08:31:20;;;;;;;3.05;2.08;;;21.90;97.20;;;;;;5038402;28;20253;-76
2022/06/08 08:33:45;;;;;;;1.85;1.75;;;21.80;97.00;;;;;;5022207;28;20435;-77
2022/06/08 08:36:11;;;;;;;1.60;1.50;;;21.80;97.00;;;;;;5037906;28;20196;-76
2022/06/08 08:38:38;;;;;;;1.30;1.20;;;21.90;97.10;;;;;;5015854;28;20561;-74
2022/06/08 08:42:20;;;;;;;3.38;1.23;;;22.00;96.60;;;;;;5032249;28;20614;-72
2022/06/08 08:43:50;;;;;;;1.58;1.40;;;22.00;96.40;;;;;;5028011;28;20327;-77
2022/06/08 08:46:45;;;;;;;1.92;1.65;;;22.10;96.40;;;;;;5040566;28;20215;-75
2022/06/08 08:49:23;;;;;;;1.80;1.70;;;22.10;96.30;;;;;;5027394;28;20211;-75
2022/06/08 08:52:11;;;;;;;1.65;1.55;;;22.20;96.60;;;;;;5008404;28;20192;-77
2022/06/08 08:54:46;;;;;;;1.50;1.40;;;22.40;96.30;;;;;;5037327;28;20792;-73
2022/06/08 08:57:11;;;;;;;1.50;1.40;;;22.60;95.90;;;;;;5007584;28;20198;-77
2022/06/08 08:59:41;;;;;;;2.30;1.38;;;22.80;95.50;;;;;;5021377;28;20191;-74
2022/06/08 09:05:13;;;;;;;2.17;1.77;;;23.10;94.60;;;;;;5009952;28;20200;-76
2022/06/08 09:07:42;;;;;;;2.78;1.48;;;23.20;94.60;;;;;;5031472;28;20212;-78
2022/06/08 09:10:18;;;;;;;2.05;1.83;;;23.20;94.20;;;;;;5019986;28;20192;-74
2022/06/08 09:12:44;;;;;;;1.85;1.70;;;23.20;94.00;;;;;;5017883;28;20230;-73
2022/06/08 09:15:12;;;;;;;2.97;2.13;;;23.40;93.90;;;;;;5020757;28;20573;-75
2022/06/08 09:17:48;;;;;;;3.00;1.20;;;23.20;93.70;;;;;;5034226;28;20519;-75
2022/06/08 09:20:27;;;;;;;1.63;1.45;;;23.10;94.30;;;;;;5016116;28;20182;-74
2022/06/08 09:22:56;;;;;;;1.63;1.52;;;23.20;93.90;;;;;;5017195;28;20615;-73
2022/06/08 09:25:35;;;;;;;2.38;1.67;;;23.60;94.30;;;;;;5021822;28;20534;-75
2022/06/08 09:28:01;;;;;;;2.08;1.80;;;24.20;93.50;;;;;;5019798;28;20209;-75
2022/06/08 09:30:47;;;;;;;2.83;1.70;;;24.40;92.70;;;;;;5019142;28;20228;-75
2022/06/08 09:33:22;;;;;;;2.03;1.92;;;24.50;92.10;;;;;;5016001;28;20211;-73
2022/06/08 09:36:00;;;;;;;2.65;1.63;;;24.40;91.80;;;;;;5013368;28;20194;-73
2022/06/08 09:38:28;;;;;;;3.15;1.98;;;24.50;91.40;;;;;;5011897;28;20292;-77
2022/06/08 09:41:08;;;;;;;1.85;1.75;;;24.60;91.20;;;;;;5019856;28;20200;-77
2022/06/08 09:43:48;;;;;;;2.45;1.73;;;24.80;91.50;;;;;;5011662;28;20607;-76
2022/06/08 09:53:10;;;;;;;2.20;1.50;;;25.30;87.20;;;;;;5018349;28;20256;-74
2022/06/08 09:56:10;;;;;;;1.60;1.50;;;25.00;87.10;;;;;;5016706;28;20241;-80
2022/06/08 09:58:49;;;;;;;1.50;1.40;;;24.90;86.50;;;;;;5015587;28;20201;-77
2022/06/08 10:01:28;;;;;;;2.40;1.70;;;25.20;87.30;;;;;;5016766;28;20266;-76
2022/06/08 10:04:23;;;;;;;1.00;1.00;;;25.10;86.70;;;;;;5015482;28;20195;-76
2022/06/08 10:07:01;;;;;;;2.60;1.23;;;25.10;85.40;;;;;;5015845;28;20733;-80
2022/06/08 10:09:48;;;;;;;7.93;1.67;;;24.80;85.80;;;;;;5019035;28;20184;-79
2022/06/08 10:12:23;;;;;;;1.35;1.25;;;24.90;86.10;;;;;;5019123;28;20219;-78
2022/06/08 10:15:03;;;;;;;1.92;1.83;;;25.00;85.50;;;;;;5015317;28;20191;-78
2022/06/08 10:17:50;;;;;;;2.53;1.50;;;25.00;85.70;;;;;;5018326;28;20206;-77
2022/06/08 10:20:23;;;;;;;1.67;1.58;;;25.50;83.80;;;;;;5015774;28;20195;-78
2022/06/08 10:22:53;;;;;;;2.30;1.48;;;25.90;83.30;;;;;;5033568;28;20288;-77
2022/06/08 10:25:22;;;;;;;3.40;1.30;;;26.00;82.00;;;;;;5007353;28;20821;-79
2022/06/08 10:27:54;;;;;;;2.08;1.90;;;26.00;80.80;;;;;;5027194;28;20208;-71
2022/06/08 10:30:28;;;;;;;1.42;1.35;;;25.80;80.80;;;;;;5008117;28;20596;-76
2022/06/08 10:33:01;;;;;;;1.85;1.75;;;25.50;82.00;;;;;;5011167;28;20300;-79
2022/06/08 10:35:31;;;;;;;3.33;2.38;;;25.50;80.70;;;;;;5012828;28;20252;-75
2022/06/08 10:37:58;;;;;;;4.47;3.80;;;25.40;80.10;;;;;;5015255;28;20207;-76
2022/06/08 10:40:28;;;;;;;1.45;1.35;;;25.20;79.60;;;;;;5018955;28;20187;-74
2022/06/08 10:42:54;;;;;;;1.75;1.13;;;25.10;78.80;;;;;;5020676;28;20223;-73
2022/06/08 10:45:22;;;;;;;1.20;1.10;;;25.00;79.30;;;;;;5041427;28;20277;-77
2022/06/08 10:48:10;;;;;;;1.63;1.50;;;24.90;79.80;;;;;;5026828;28;20208;-80
2022/06/08 10:50:40;;;;;;;1.10;1.10;;;24.90;80.20;;;;;;5014104;28;20187;-78
2022/06/08 10:56:23;;;;;;;1.63;1.20;;;25.10;81.50;;;;;;5007032;28;20211;-77
2022/06/08 10:59:03;;;;;;;2.60;2.17;;;25.40;80.80;;;;;;5020462;28;20211;-74
2022/06/08 11:01:50;;;;;;;1.42;1.33;;;25.80;80.10;;;;;;5014148;28;20187;-76
2022/06/08 11:04:29;;;;;;;1.50;1.40;;;26.50;78.00;;;;;;5014963;28;20483;-79
2022/06/08 11:07:06;;;;;;;2.85;1.15;;;26.40;75.70;;;;;;5018079;28;20216;-76
2022/06/08 11:09:34;;;;;;;2.35;1.30;;;26.40;75.50;;;;;;5016121;28;20203;-75
2022/06/08 11:12:04;;;;;;;3.33;1.25;;;26.40;74.80;;;;;;5020306;28;20196;-75
2022/06/08 11:14:56;;;;;;;1.23;1.13;;;26.80;74.40;;;;;;5002257;28;20195;-77
2022/06/08 11:17:40;;;;;;;1.40;1.30;;;26.60;73.60;;;;;;5026883;28;20199;-77
2022/06/08 11:20:26;;;;;;;1.80;1.10;;;26.40;73.90;;;;;;5014744;28;20208;-74
2022/06/08 11:22:58;;;;;;;1.33;1.33;;;26.70;73.80;;;;;;5012926;28;20202;-77
2022/06/08 11:25:30;;;;;;;3.00;1.75;;;27.40;73.10;;;;;;5016666;28;20203;-75
2022/06/08 11:28:27;;;;;;;0.85;0.82;;;28.10;69.80;;;;;;5006607;28;20207;-68
2022/06/08 11:30:59;;;;;;;1.25;1.25;;;28.40;69.60;;;;;;5026941;28;20183;-76
2022/06/08 11:33:56;;;;;;;2.13;1.17;;;29.40;67.80;;;;;;5007050;28;20237;-76
2022/06/08 11:36:39;;;;;;;3.20;1.20;;;30.80;62.70;;;;;;5005100;28;20215;-78
2022/06/08 11:39:23;;;;;;;1.83;1.25;;;30.80;61.80;;;;;;5005021;28;20403;-73
2022/06/08 11:42:28;;;;;;;2.05;1.17;;;30.10;60.50;;;;;;5014051;28;20195;-74
2022/06/08 11:45:14;;;;;;;1.15;1.10;;;30.40;59.80;;;;;;5004914;28;20238;-75
2022/06/08 11:47:47;;;;;;;0.98;0.98;;;30.40;58.80;;;;;;5016806;28;20220;-75
2022/06/08 11:50:17;;;;;;;1.58;1.00;;;31.00;57.90;;;;;;5016455;28;20357;-74
2022/06/08 11:52:55;;;;;;;2.17;1.30;;;32.00;57.00;;;;;;5018067;28;20184;-76
2022/06/08 11:55:23;;;;;;;1.30;1.20;;;32.60;54.80;;;;;;5013844;28;20223;-74
2022/06/08 11:57:56;;;;;;;3.70;2.22;;;33.20;53.00;;;;;;5017837;28;20558;-77
2022/06/08 12:00:56;;;;;;;1.33;1.23;;;33.40;52.70;;;;;;5011630;28;20240;-78
2022/06/08 12:03:42;;;;;;;0.90;0.90;;;34.20;51.30;;;;;;5014077;28;20302;-76
2022/06/08 12:06:14;;;;;;;1.70;1.60;;;35.30;49.30;;;;;;5008643;28;20240;-75
2022/06/08 12:08:42;;;;;;;0.77;0.77;;;35.70;47.00;;;;;;5013449;28;20176;-79
2022/06/08 12:11:14;;;;;;;1.05;0.93;;;34.00;46.20;;;;;;5009848;28;20580;-75
2022/06/08 12:13:50;;;;;;;1.65;1.13;;;33.10;46.90;;;;;;5017558;28;20180;-77
2022/06/08 12:16:30;;;;;;;1.63;1.08;;;32.40;48.50;;;;;;5013876;28;20204;-69
2022/06/08 12:19:03;;;;;;;1.50;1.33;;;31.50;49.20;;;;;;5009861;28;20233;-67
2022/06/08 12:21:34;;;;;;;1.48;1.10;;;30.40;51.60;;;;;;5015778;28;20192;-77
2022/06/08 12:24:03;;;;;;;2.05;1.85;;;30.00;52.20;;;;;;5003510;28;20206;-73
2022/06/08 12:26:51;;;;;;;4.57;1.60;;;29.40;53.50;;;;;;5006400;28;20216;-77
2022/06/08 12:29:37;;;;;;;4.00;1.52;;;28.80;54.60;;;;;;5016727;28;20924;-77
2022/06/08 12:32:05;;;;;;;0.85;0.85;;;28.50;55.50;;;;;;5010397;28;20203;-76
2022/06/08 12:34:44;;;;;;;1.33;1.23;;;28.20;55.60;;;;;;5014421;28;20197;-76
2022/06/08 12:37:28;;;;;;;1.73;1.30;;;28.10;56.70;;;;;;5015229;28;20184;-77
2022/06/08 12:40:20;;;;;;;1.02;1.02;;;28.50;56.20;;;;;;5013367;28;20200;-77
2022/06/08 12:43:10;;;;;;;0.98;0.80;;;29.70;55.40;;;;;;5014044;28;20279;-78
2022/06/08 12:45:57;;;;;;;0.85;0.80;;;30.90;53.10;;;;;;5011607;28;20218;-78
2022/06/08 12:48:32;;;;;;;0.90;0.90;;;31.50;51.90;;;;;;5010563;28;20220;-78
2022/06/08 12:50:58;;;;;;;0.98;0.98;;;31.40;50.80;;;;;;5010099;28;20281;-77
2022/06/08 12:53:24;;;;;;;1.48;0.75;;;31.00;51.20;;;;;;5013498;28;20215;-76
2022/06/08 12:55:52;;;;;;;0.80;0.77;;;30.90;51.70;;;;;;5028936;28;20235;-76
2022/06/08 12:58:19;;;;;;;2.38;0.90;;;30.80;51.30;;;;;;5013193;28;20224;-76
2022/06/08 13:00:49;;;;;;;0.77;0.77;;;29.90;52.50;;;;;;5041052;28;20194;-76
2022/06/08 13:03:27;;;;;;;1.70;0.70;;;30.00;53.30;;;;;;5013810;28;20184;-77
2022/06/08 13:05:55;;;;;;;1.55;1.45;;;30.20;53.20;;;;;;5018263;28;20191;-77
2022/06/08 13:08:25;;;;;;;2.38;1.05;;;30.40;52.20;;;;;;5014086;28;20286;-79
2022/06/08 13:10:52;;;;;;;1.95;0.60;;;30.30;51.70;;;;;;5031731;28;20259;-78
2022/06/08 13:13:22;;;;;;;0.70;0.70;;;29.80;52.10;;;;;;5013494;28;20275;-78
2022/06/08 13:15:48;;;;;;;1.40;0.82;;;29.20;53.00;;;;;;5035279;28;20191;-78
2022/06/08 13:18:17;;;;;;;0.80;0.80;;;28.50;54.40;;;;;;5015364;28;20290;-76
2022/06/08 13:20:44;;;;;;;1.20;1.10;;;27.80;55.00;;;;;;5041052;28;20188;-75
2022/06/08 13:23:10;;;;;;;1.52;0.57;;;27.70;55.60;;;;;;5013422;28;20188;-75
2022/06/08 13:25:36;;;;;;;1.08;0.88;;;27.60;56.00;;;;;;5026412;28;20541;-76